sensor_id;sensor_type;location;lat;lon;timestamp;temperature;humidity
67862;DHT22;54665;51.462;6.698;2024-01-10T00:01:25;-3.07;60.36
67862;DHT22;54665;51.462;6.698;2024-01-10T00:03:25;-3.15;60.22
67862;DHT22;54665;51.462;6.698;2024-01-10T00:05:26;-3.03;60.29
67862;DHT22;54665;51.462;6.698;2024-01-10T00:07:26;-3.21;60.32
67862;DHT22;54665;51.462;6.698;2024-01-10T00:09:26;-3.17;60.12
67862;DHT22;54665;51.462;6.698;2024-01-10T00:11:27;-3.20;60.24
67862;DHT22;54665;51.462;6.698;2024-01-10T00:13:27;-3.11;60.01
67862;DHT22;54665;51.462;6.698;2024-01-10T00:15:27;-3.04;59.79
67862;DHT22;54665;51.462;6.698;2024-01-10T00:17:27;-3.20;60.06
67862;DHT22;54665;51.462;6.698;2024-01-10T00:19:28;-3.14;60.22
67862;DHT22;54665;51.462;6.698;2024-01-10T00:21:29;-3.35;60.52
67862;DHT22;54665;51.462;6.698;2024-01-10T00:23:29;-3.18;60.59
67862;DHT22;54665;51.462;6.698;2024-01-10T00:25:29;-3.10;60.80
67862;DHT22;54665;51.462;6.698;2024-01-10T00:27:29;-3.31;60.54
67862;DHT22;54665;51.462;6.698;2024-01-10T00:29:30;-3.15;60.34
67862;DHT22;54665;51.462;6.698;2024-01-10T00:31:30;-3.35;61.17
67862;DHT22;54665;51.462;6.698;2024-01-10T00:33:30;-3.34;61.20
67862;DHT22;54665;51.462;6.698;2024-01-10T00:35:31;-3.24;60.84
67862;DHT22;54665;51.462;6.698;2024-01-10T00:37:31;-3.27;60.58
67862;DHT22;54665;51.462;6.698;2024-01-10T00:39:32;-3.43;62.17
67862;DHT22;54665;51.462;6.698;2024-01-10T00:41:32;-3.33;60.94
67862;DHT22;54665;51.462;6.698;2024-01-10T00:43:32;-3.54;61.11
67862;DHT22;54665;51.462;6.698;2024-01-10T00:45:32;-3.48;61.53
67862;DHT22;54665;51.462;6.698;2024-01-10T00:47:33;-3.33;61.27
67862;DHT22;54665;51.462;6.698;2024-01-10T00:49:33;-3.45;61.27
67862;DHT22;54665;51.462;6.698;2024-01-10T00:51:33;-3.27;61.28
67862;DHT22;54665;51.462;6.698;2024-01-10T00:53:34;-3.37;61.67
67862;DHT22;54665;51.462;6.698;2024-01-10T00:55:35;-3.33;61.18
67862;DHT22;54665;51.462;6.698;2024-01-10T00:57:38;-3.38;61.51
67862;DHT22;54665;51.462;6.698;2024-01-10T00:59:39;-3.30;61.29
67862;DHT22;54665;51.462;6.698;2024-01-10T01:01:39;-3.33;61.58
67862;DHT22;54665;51.462;6.698;2024-01-10T01:03:39;-3.52;62.30
67862;DHT22;54665;51.462;6.698;2024-01-10T01:05:39;-3.44;61.58
67862;DHT22;54665;51.462;6.698;2024-01-10T01:07:40;-3.48;61.71
67862;DHT22;54665;51.462;6.698;2024-01-10T01:09:40;-3.30;60.99
67862;DHT22;54665;51.462;6.698;2024-01-10T01:11:41;-3.56;61.67
67862;DHT22;54665;51.462;6.698;2024-01-10T01:13:41;-3.51;61.12
67862;DHT22;54665;51.462;6.698;2024-01-10T01:15:41;-3.56;60.91
67862;DHT22;54665;51.462;6.698;2024-01-10T01:17:42;-3.40;61.29
67862;DHT22;54665;51.462;6.698;2024-01-10T01:19:42;-3.62;62.23
67862;DHT22;54665;51.462;6.698;2024-01-10T01:21:42;-3.66;62.66
67862;DHT22;54665;51.462;6.698;2024-01-10T01:23:43;-3.55;62.13
67862;DHT22;54665;51.462;6.698;2024-01-10T01:25:43;-3.72;62.99
67862;DHT22;54665;51.462;6.698;2024-01-10T01:27:43;-3.86;63.33
67862;DHT22;54665;51.462;6.698;2024-01-10T01:29:44;-3.83;63.66
67862;DHT22;54665;51.462;6.698;2024-01-10T01:31:44;-3.64;63.11
67862;DHT22;54665;51.462;6.698;2024-01-10T01:33:45;-3.59;63.36
67862;DHT22;54665;51.462;6.698;2024-01-10T01:35:45;-3.52;63.17
67862;DHT22;54665;51.462;6.698;2024-01-10T01:37:46;-3.61;63.17
67862;DHT22;54665;51.462;6.698;2024-01-10T01:39:46;-3.61;63.34
67862;DHT22;54665;51.462;6.698;2024-01-10T01:41:46;-3.72;63.70
67862;DHT22;54665;51.462;6.698;2024-01-10T01:43:46;-3.55;63.79
67862;DHT22;54665;51.462;6.698;2024-01-10T01:45:50;-3.74;64.78
67862;DHT22;54665;51.462;6.698;2024-01-10T01:47:50;-3.76;64.19
67862;DHT22;54665;51.462;6.698;2024-01-10T01:49:51;-3.78;63.79
67862;DHT22;54665;51.462;6.698;2024-01-10T01:51:52;-3.74;64.01
67862;DHT22;54665;51.462;6.698;2024-01-10T01:53:53;-3.76;63.92
67862;DHT22;54665;51.462;6.698;2024-01-10T01:55:53;-3.65;64.36
67862;DHT22;54665;51.462;6.698;2024-01-10T01:57:54;-3.75;64.30
67862;DHT22;54665;51.462;6.698;2024-01-10T01:59:55;-3.74;63.95
67862;DHT22;54665;51.462;6.698;2024-01-10T02:01:55;-3.79;64.34
67862;DHT22;54665;51.462;6.698;2024-01-10T02:03:56;-3.55;64.06
67862;DHT22;54665;51.462;6.698;2024-01-10T02:05:56;-3.83;64.87
67862;DHT22;54665;51.462;6.698;2024-01-10T02:07:57;-3.83;65.10
67862;DHT22;54665;51.462;6.698;2024-01-10T02:09:57;-3.86;64.93
67862;DHT22;54665;51.462;6.698;2024-01-10T02:11:57;-3.69;64.26
67862;DHT22;54665;51.462;6.698;2024-01-10T02:13:58;-3.82;64.33
67862;DHT22;54665;51.462;6.698;2024-01-10T02:15:59;-3.82;64.56
67862;DHT22;54665;51.462;6.698;2024-01-10T02:17:59;-4.06;64.99
67862;DHT22;54665;51.462;6.698;2024-01-10T02:20:13;-3.90;65.45
67862;DHT22;54665;51.462;6.698;2024-01-10T02:22:13;-4.06;65.77
67862;DHT22;54665;51.462;6.698;2024-01-10T02:24:13;-3.95;65.66
67862;DHT22;54665;51.462;6.698;2024-01-10T02:26:18;-4.02;65.46
67862;DHT22;54665;51.462;6.698;2024-01-10T02:28:18;-4.06;66.13
67862;DHT22;54665;51.462;6.698;2024-01-10T02:30:18;-4.10;66.37
67862;DHT22;54665;51.462;6.698;2024-01-10T02:32:18;-4.40;67.82
67862;DHT22;54665;51.462;6.698;2024-01-10T02:34:19;-4.13;66.11
67862;DHT22;54665;51.462;6.698;2024-01-10T02:36:19;-4.13;65.79
67862;DHT22;54665;51.462;6.698;2024-01-10T02:38:19;-4.20;66.08
67862;DHT22;54665;51.462;6.698;2024-01-10T02:40:20;-4.14;66.11
67862;DHT22;54665;51.462;6.698;2024-01-10T02:42:21;-4.21;66.21
67862;DHT22;54665;51.462;6.698;2024-01-10T02:44:21;-4.33;66.72
67862;DHT22;54665;51.462;6.698;2024-01-10T02:46:21;-4.26;66.88
67862;DHT22;54665;51.462;6.698;2024-01-10T02:48:22;-4.30;66.63
67862;DHT22;54665;51.462;6.698;2024-01-10T02:50:22;-4.03;66.15
67862;DHT22;54665;51.462;6.698;2024-01-10T02:52:22;-4.33;66.29
67862;DHT22;54665;51.462;6.698;2024-01-10T02:54:23;-4.28;67.08
67862;DHT22;54665;51.462;6.698;2024-01-10T02:56:23;-4.33;67.44
67862;DHT22;54665;51.462;6.698;2024-01-10T02:58:23;-4.37;67.23
67862;DHT22;54665;51.462;6.698;2024-01-10T03:00:24;-4.48;67.39
67862;DHT22;54665;51.462;6.698;2024-01-10T03:02:24;-4.30;66.92
67862;DHT22;54665;51.462;6.698;2024-01-10T03:04:25;-4.28;66.71
67862;DHT22;54665;51.462;6.698;2024-01-10T03:06:25;-4.36;66.90
67862;DHT22;54665;51.462;6.698;2024-01-10T03:08:25;-4.30;66.56
67862;DHT22;54665;51.462;6.698;2024-01-10T03:10:26;-4.23;66.88
67862;DHT22;54665;51.462;6.698;2024-01-10T03:12:26;-4.37;67.33
67862;DHT22;54665;51.462;6.698;2024-01-10T03:14:26;-4.33;66.78
67862;DHT22;54665;51.462;6.698;2024-01-10T03:16:27;-4.37;67.41
67862;DHT22;54665;51.462;6.698;2024-01-10T03:18:27;-4.27;67.61
67862;DHT22;54665;51.462;6.698;2024-01-10T03:20:27;-4.34;67.68
67862;DHT22;54665;51.462;6.698;2024-01-10T03:22:29;-4.51;67.88
67862;DHT22;54665;51.462;6.698;2024-01-10T03:24:29;-4.43;68.08
67862;DHT22;54665;51.462;6.698;2024-01-10T03:26:29;-4.37;68.10
67862;DHT22;54665;51.462;6.698;2024-01-10T03:28:30;-4.46;67.91
67862;DHT22;54665;51.462;6.698;2024-01-10T03:30:30;-4.37;68.12
67862;DHT22;54665;51.462;6.698;2024-01-10T03:32:30;-4.47;68.51
67862;DHT22;54665;51.462;6.698;2024-01-10T03:34:30;-4.54;68.72
67862;DHT22;54665;51.462;6.698;2024-01-10T03:36:31;-4.62;69.04
67862;DHT22;54665;51.462;6.698;2024-01-10T03:38:31;-4.50;68.58
67862;DHT22;54665;51.462;6.698;2024-01-10T03:40:31;-4.51;67.91
67862;DHT22;54665;51.462;6.698;2024-01-10T03:42:32;-4.38;67.65
67862;DHT22;54665;51.462;6.698;2024-01-10T03:44:32;-4.51;68.09
67862;DHT22;54665;51.462;6.698;2024-01-10T03:46:32;-4.50;68.31
67862;DHT22;54665;51.462;6.698;2024-01-10T03:48:32;-4.56;68.30
67862;DHT22;54665;51.462;6.698;2024-01-10T03:50:33;-4.41;67.91
67862;DHT22;54665;51.462;6.698;2024-01-10T03:52:33;-4.54;68.41
67862;DHT22;54665;51.462;6.698;2024-01-10T03:54:34;-4.57;68.43
67862;DHT22;54665;51.462;6.698;2024-01-10T03:56:34;-4.61;68.73
67862;DHT22;54665;51.462;6.698;2024-01-10T03:58:34;-4.62;68.23
67862;DHT22;54665;51.462;6.698;2024-01-10T04:00:35;-4.61;68.67
67862;DHT22;54665;51.462;6.698;2024-01-10T04:02:37;-4.53;68.33
67862;DHT22;54665;51.462;6.698;2024-01-10T04:04:37;-4.53;68.37
67862;DHT22;54665;51.462;6.698;2024-01-10T04:06:37;-4.57;68.48
67862;DHT22;54665;51.462;6.698;2024-01-10T04:08:38;-4.47;67.91
67862;DHT22;54665;51.462;6.698;2024-01-10T04:10:38;-4.53;68.43
67862;DHT22;54665;51.462;6.698;2024-01-10T04:12:40;-4.53;68.45
67862;DHT22;54665;51.462;6.698;2024-01-10T04:14:40;-4.71;68.88
67862;DHT22;54665;51.462;6.698;2024-01-10T04:16:40;-4.58;68.28
67862;DHT22;54665;51.462;6.698;2024-01-10T04:18:41;-4.58;68.01
67862;DHT22;54665;51.462;6.698;2024-01-10T04:20:41;-4.58;68.60
67862;DHT22;54665;51.462;6.698;2024-01-10T04:22:41;-4.67;69.01
67862;DHT22;54665;51.462;6.698;2024-01-10T04:24:42;-4.64;69.51
67862;DHT22;54665;51.462;6.698;2024-01-10T04:26:42;-4.61;70.06
67862;DHT22;54665;51.462;6.698;2024-01-10T04:28:42;-4.77;70.06
67862;DHT22;54665;51.462;6.698;2024-01-10T04:30:43;-4.69;69.65
67862;DHT22;54665;51.462;6.698;2024-01-10T04:32:43;-4.72;69.91
67862;DHT22;54665;51.462;6.698;2024-01-10T04:34:43;-4.84;70.17
67862;DHT22;54665;51.462;6.698;2024-01-10T04:36:44;-4.84;70.33
67862;DHT22;54665;51.462;6.698;2024-01-10T04:38:44;-4.78;70.29
67862;DHT22;54665;51.462;6.698;2024-01-10T04:40:44;-4.85;70.30
67862;DHT22;54665;51.462;6.698;2024-01-10T04:42:44;-4.82;70.04
67862;DHT22;54665;51.462;6.698;2024-01-10T04:44:45;-4.81;70.06
67862;DHT22;54665;51.462;6.698;2024-01-10T04:46:45;-4.84;70.54
67862;DHT22;54665;51.462;6.698;2024-01-10T04:48:45;-4.71;70.35
67862;DHT22;54665;51.462;6.698;2024-01-10T04:50:46;-4.78;71.08
67862;DHT22;54665;51.462;6.698;2024-01-10T04:52:46;-4.88;70.84
67862;DHT22;54665;51.462;6.698;2024-01-10T04:54:46;-4.91;71.03
67862;DHT22;54665;51.462;6.698;2024-01-10T04:56:47;-4.84;70.91
67862;DHT22;54665;51.462;6.698;2024-01-10T04:58:47;-4.84;70.54
67862;DHT22;54665;51.462;6.698;2024-01-10T05:00:47;-4.82;70.12
67862;DHT22;54665;51.462;6.698;2024-01-10T05:02:47;-4.81;70.75
67862;DHT22;54665;51.462;6.698;2024-01-10T05:04:48;-4.88;70.68
67862;DHT22;54665;51.462;6.698;2024-01-10T05:06:49;-4.85;70.86
67862;DHT22;54665;51.462;6.698;2024-01-10T05:08:49;-4.88;71.02
67862;DHT22;54665;51.462;6.698;2024-01-10T05:10:49;-4.68;70.53
67862;DHT22;54665;51.462;6.698;2024-01-10T05:12:50;-4.79;71.10
67862;DHT22;54665;51.462;6.698;2024-01-10T05:14:50;-4.75;70.88
67862;DHT22;54665;51.462;6.698;2024-01-10T05:16:51;-4.77;70.74
67862;DHT22;54665;51.462;6.698;2024-01-10T05:18:51;-4.79;71.00
67862;DHT22;54665;51.462;6.698;2024-01-10T05:20:51;-4.75;70.91
67862;DHT22;54665;51.462;6.698;2024-01-10T05:22:51;-4.69;70.70
67862;DHT22;54665;51.462;6.698;2024-01-10T05:24:52;-4.60;70.57
67862;DHT22;54665;51.462;6.698;2024-01-10T05:26:52;-4.78;71.20
67862;DHT22;54665;51.462;6.698;2024-01-10T05:28:52;-4.84;71.03
67862;DHT22;54665;51.462;6.698;2024-01-10T05:30:53;-4.81;70.32
67862;DHT22;54665;51.462;6.698;2024-01-10T05:32:53;-4.61;70.50
67862;DHT22;54665;51.462;6.698;2024-01-10T05:34:54;-4.62;70.33
67862;DHT22;54665;51.462;6.698;2024-01-10T05:36:54;-4.62;70.33
67862;DHT22;54665;51.462;6.698;2024-01-10T05:38:54;-4.77;70.18
67862;DHT22;54665;51.462;6.698;2024-01-10T05:40:55;-4.61;70.24
67862;DHT22;54665;51.462;6.698;2024-01-10T05:42:56;-4.58;70.24
67862;DHT22;54665;51.462;6.698;2024-01-10T05:44:56;-4.60;70.61
67862;DHT22;54665;51.462;6.698;2024-01-10T05:46:56;-4.64;70.45
67862;DHT22;54665;51.462;6.698;2024-01-10T05:48:56;-4.57;70.78
67862;DHT22;54665;51.462;6.698;2024-01-10T05:50:57;-4.54;70.52
67862;DHT22;54665;51.462;6.698;2024-01-10T05:52:57;-4.60;70.68
67862;DHT22;54665;51.462;6.698;2024-01-10T05:54:57;-4.69;71.75
67862;DHT22;54665;51.462;6.698;2024-01-10T05:56:58;-4.71;71.68
67862;DHT22;54665;51.462;6.698;2024-01-10T05:58:58;-4.85;71.59
67862;DHT22;54665;51.462;6.698;2024-01-10T06:00:58;-4.98;71.91
67862;DHT22;54665;51.462;6.698;2024-01-10T06:02:59;-4.72;71.19
67862;DHT22;54665;51.462;6.698;2024-01-10T06:04:59;-4.91;71.61
67862;DHT22;54665;51.462;6.698;2024-01-10T06:07:00;-4.85;71.61
67862;DHT22;54665;51.462;6.698;2024-01-10T06:09:00;-4.89;71.64
67862;DHT22;54665;51.462;6.698;2024-01-10T06:11:05;-4.87;71.23
67862;DHT22;54665;51.462;6.698;2024-01-10T06:13:06;-4.75;70.99
67862;DHT22;54665;51.462;6.698;2024-01-10T06:15:07;-4.81;70.71
67862;DHT22;54665;51.462;6.698;2024-01-10T06:17:07;-4.79;71.27
67862;DHT22;54665;51.462;6.698;2024-01-10T06:19:07;-4.81;71.28
67862;DHT22;54665;51.462;6.698;2024-01-10T06:21:08;-4.87;71.66
67862;DHT22;54665;51.462;6.698;2024-01-10T06:23:08;-4.82;71.46
67862;DHT22;54665;51.462;6.698;2024-01-10T06:25:08;-4.81;71.10
67862;DHT22;54665;51.462;6.698;2024-01-10T06:27:09;-4.81;71.17
67862;DHT22;54665;51.462;6.698;2024-01-10T06:29:09;-4.89;71.11
67862;DHT22;54665;51.462;6.698;2024-01-10T06:31:09;-4.88;71.34
67862;DHT22;54665;51.462;6.698;2024-01-10T06:33:10;-4.92;71.66
67862;DHT22;54665;51.462;6.698;2024-01-10T06:35:10;-4.72;71.41
67862;DHT22;54665;51.462;6.698;2024-01-10T06:37:10;-4.84;71.30
67862;DHT22;54665;51.462;6.698;2024-01-10T06:39:10;-4.68;71.72
67862;DHT22;54665;51.462;6.698;2024-01-10T06:41:11;-4.65;71.68
67862;DHT22;54665;51.462;6.698;2024-01-10T06:43:11;-4.77;71.87
67862;DHT22;54665;51.462;6.698;2024-01-10T06:45:12;-4.72;71.93
67862;DHT22;54665;51.462;6.698;2024-01-10T06:47:12;-4.89;71.95
67862;DHT22;54665;51.462;6.698;2024-01-10T06:49:12;-4.91;72.53
67862;DHT22;54665;51.462;6.698;2024-01-10T06:51:13;-4.78;72.01
67862;DHT22;54665;51.462;6.698;2024-01-10T06:53:13;-4.69;72.22
67862;DHT22;54665;51.462;6.698;2024-01-10T06:55:14;-4.72;71.99
67862;DHT22;54665;51.462;6.698;2024-01-10T06:57:14;-4.69;72.18
67862;DHT22;54665;51.462;6.698;2024-01-10T06:59:15;-4.68;71.58
67862;DHT22;54665;51.462;6.698;2024-01-10T07:01:15;-4.81;71.87
67862;DHT22;54665;51.462;6.698;2024-01-10T07:03:16;-4.84;71.79
67862;DHT22;54665;51.462;6.698;2024-01-10T07:05:16;-4.62;71.27
67862;DHT22;54665;51.462;6.698;2024-01-10T07:07:16;-4.65;71.13
67862;DHT22;54665;51.462;6.698;2024-01-10T07:09:17;-4.71;71.13
67862;DHT22;54665;51.462;6.698;2024-01-10T07:11:17;-4.56;71.55
67862;DHT22;54665;51.462;6.698;2024-01-10T07:13:18;-4.68;71.55
67862;DHT22;54665;51.462;6.698;2024-01-10T07:15:18;-4.74;71.60
67862;DHT22;54665;51.462;6.698;2024-01-10T07:17:18;-4.69;71.94
67862;DHT22;54665;51.462;6.698;2024-01-10T07:19:19;-4.62;71.72
67862;DHT22;54665;51.462;6.698;2024-01-10T07:21:19;-4.57;71.51
67862;DHT22;54665;51.462;6.698;2024-01-10T07:23:19;-4.58;71.55
67862;DHT22;54665;51.462;6.698;2024-01-10T07:25:20;-4.64;71.29
67862;DHT22;54665;51.462;6.698;2024-01-10T07:27:20;-4.46;70.84
67862;DHT22;54665;51.462;6.698;2024-01-10T07:29:20;-4.54;70.80
67862;DHT22;54665;51.462;6.698;2024-01-10T07:31:21;-4.50;71.09
67862;DHT22;54665;51.462;6.698;2024-01-10T07:33:21;-4.56;70.79
67862;DHT22;54665;51.462;6.698;2024-01-10T07:35:21;-4.62;71.15
67862;DHT22;54665;51.462;6.698;2024-01-10T07:37:21;-4.74;71.00
67862;DHT22;54665;51.462;6.698;2024-01-10T07:39:22;-4.58;70.47
67862;DHT22;54665;51.462;6.698;2024-01-10T07:41:22;-4.60;70.77
67862;DHT22;54665;51.462;6.698;2024-01-10T07:43:23;-4.50;70.73
67862;DHT22;54665;51.462;6.698;2024-01-10T07:45:23;-4.54;70.36
67862;DHT22;54665;51.462;6.698;2024-01-10T07:47:24;-4.56;70.56
67862;DHT22;54665;51.462;6.698;2024-01-10T07:49:24;-4.64;70.86
67862;DHT22;54665;51.462;6.698;2024-01-10T07:51:24;-4.61;70.46
67862;DHT22;54665;51.462;6.698;2024-01-10T07:53:24;-4.47;70.15
67862;DHT22;54665;51.462;6.698;2024-01-10T07:55:25;-4.53;69.86
67862;DHT22;54665;51.462;6.698;2024-01-10T07:57:26;-4.40;69.49
67862;DHT22;54665;51.462;6.698;2024-01-10T07:59:26;-4.36;69.82
67862;DHT22;54665;51.462;6.698;2024-01-10T08:01:26;-4.38;69.59
67862;DHT22;54665;51.462;6.698;2024-01-10T08:03:26;-4.37;70.29
67862;DHT22;54665;51.462;6.698;2024-01-10T08:05:27;-4.48;71.03
67862;DHT22;54665;51.462;6.698;2024-01-10T08:07:27;-4.37;70.67
67862;DHT22;54665;51.462;6.698;2024-01-10T08:09:27;-4.41;70.84
67862;DHT22;54665;51.462;6.698;2024-01-10T08:11:28;-4.28;70.50
67862;DHT22;54665;51.462;6.698;2024-01-10T08:13:28;-4.46;70.52
67862;DHT22;54665;51.462;6.698;2024-01-10T08:15:28;-4.40;69.60
67862;DHT22;54665;51.462;6.698;2024-01-10T08:17:28;-4.33;70.14
67862;DHT22;54665;51.462;6.698;2024-01-10T08:19:29;-4.26;70.10
67862;DHT22;54665;51.462;6.698;2024-01-10T08:21:29;-4.26;69.79
67862;DHT22;54665;51.462;6.698;2024-01-10T08:23:29;-4.20;69.88
67862;DHT22;54665;51.462;6.698;2024-01-10T08:25:30;-4.30;69.69
67862;DHT22;54665;51.462;6.698;2024-01-10T08:27:30;-4.28;69.98
67862;DHT22;54665;51.462;6.698;2024-01-10T08:29:30;-4.24;69.61
67862;DHT22;54665;51.462;6.698;2024-01-10T08:31:30;-4.09;69.70
67862;DHT22;54665;51.462;6.698;2024-01-10T08:33:31;-4.23;69.91
67862;DHT22;54665;51.462;6.698;2024-01-10T08:35:31;-4.23;69.26
67862;DHT22;54665;51.462;6.698;2024-01-10T08:37:31;-4.11;69.53
67862;DHT22;54665;51.462;6.698;2024-01-10T08:39:32;-3.96;69.23
67862;DHT22;54665;51.462;6.698;2024-01-10T08:41:32;-4.02;69.03
67862;DHT22;54665;51.462;6.698;2024-01-10T08:43:33;-4.03;69.00
67862;DHT22;54665;51.462;6.698;2024-01-10T08:45:33;-4.05;69.05
67862;DHT22;54665;51.462;6.698;2024-01-10T08:47:33;-3.90;68.85
67862;DHT22;54665;51.462;6.698;2024-01-10T08:49:33;-4.09;69.06
67862;DHT22;54665;51.462;6.698;2024-01-10T08:51:34;-3.95;68.80
67862;DHT22;54665;51.462;6.698;2024-01-10T08:53:34;-3.85;68.52
67862;DHT22;54665;51.462;6.698;2024-01-10T08:55:34;-3.85;68.40
67862;DHT22;54665;51.462;6.698;2024-01-10T08:57:35;-3.78;67.99
67862;DHT22;54665;51.462;6.698;2024-01-10T08:59:35;-3.59;67.60
67862;DHT22;54665;51.462;6.698;2024-01-10T09:01:35;-3.69;68.33
67862;DHT22;54665;51.462;6.698;2024-01-10T09:03:35;-3.51;67.13
67862;DHT22;54665;51.462;6.698;2024-01-10T09:05:36;-3.75;66.06
67862;DHT22;54665;51.462;6.698;2024-01-10T09:07:36;-3.68;65.90
67862;DHT22;54665;51.462;6.698;2024-01-10T09:09:36;-3.45;65.85
67862;DHT22;54665;51.462;6.698;2024-01-10T09:11:37;-3.43;65.88
67862;DHT22;54665;51.462;6.698;2024-01-10T09:13:37;-3.30;64.83
67862;DHT22;54665;51.462;6.698;2024-01-10T09:15:37;-3.18;65.12
67862;DHT22;54665;51.462;6.698;2024-01-10T09:17:38;-3.37;65.20
67862;DHT22;54665;51.462;6.698;2024-01-10T09:19:38;-3.24;65.08
67862;DHT22;54665;51.462;6.698;2024-01-10T09:21:38;-3.17;65.12
67862;DHT22;54665;51.462;6.698;2024-01-10T09:23:39;-3.21;65.31
67862;DHT22;54665;51.462;6.698;2024-01-10T09:25:39;-3.10;64.73
67862;DHT22;54665;51.462;6.698;2024-01-10T09:27:40;-3.10;64.58
67862;DHT22;54665;51.462;6.698;2024-01-10T09:29:40;-2.97;64.83
67862;DHT22;54665;51.462;6.698;2024-01-10T09:31:40;-2.94;64.07
67862;DHT22;54665;51.462;6.698;2024-01-10T09:33:41;-2.76;63.93
67862;DHT22;54665;51.462;6.698;2024-01-10T09:35:41;-2.68;64.15
67862;DHT22;54665;51.462;6.698;2024-01-10T09:37:41;-2.82;63.56
67862;DHT22;54665;51.462;6.698;2024-01-10T09:39:41;-2.68;63.15
67862;DHT22;54665;51.462;6.698;2024-01-10T09:41:48;-2.68;62.92
67862;DHT22;54665;51.462;6.698;2024-01-10T09:43:49;-2.69;63.16
67862;DHT22;54665;51.462;6.698;2024-01-10T09:45:50;-2.55;62.92
67862;DHT22;54665;51.462;6.698;2024-01-10T09:47:56;-2.62;63.23
67862;DHT22;54665;51.462;6.698;2024-01-10T09:49:56;-2.52;62.86
67862;DHT22;54665;51.462;6.698;2024-01-10T09:51:58;-2.27;61.53
67862;DHT22;54665;51.462;6.698;2024-01-10T09:54:02;-2.30;61.63
67862;DHT22;54665;51.462;6.698;2024-01-10T09:56:04;-2.32;61.96
67862;DHT22;54665;51.462;6.698;2024-01-10T09:58:08;-2.25;61.41
67862;DHT22;54665;51.462;6.698;2024-01-10T10:00:10;-2.02;61.08
67862;DHT22;54665;51.462;6.698;2024-01-10T10:02:11;-1.74;60.32
67862;DHT22;54665;51.462;6.698;2024-01-10T10:04:13;-2.17;61.43
67862;DHT22;54665;51.462;6.698;2024-01-10T10:06:14;-1.89;61.00
67862;DHT22;54665;51.462;6.698;2024-01-10T10:08:15;-1.91;60.95
67862;DHT22;54665;51.462;6.698;2024-01-10T10:10:16;-1.76;60.20
67862;DHT22;54665;51.462;6.698;2024-01-10T10:12:16;-1.71;59.84
67862;DHT22;54665;51.462;6.698;2024-01-10T10:14:18;-2.07;60.23
67862;DHT22;54665;51.462;6.698;2024-01-10T10:16:25;-2.08;60.44
67862;DHT22;54665;51.462;6.698;2024-01-10T10:18:27;-1.67;59.87
67862;DHT22;54665;51.462;6.698;2024-01-10T10:20:30;-1.97;60.52
67862;DHT22;54665;51.462;6.698;2024-01-10T10:22:32;-1.67;60.17
67862;DHT22;54665;51.462;6.698;2024-01-10T10:24:32;-1.70;61.02
67862;DHT22;54665;51.462;6.698;2024-01-10T10:26:34;-1.67;60.47
67862;DHT22;54665;51.462;6.698;2024-01-10T10:28:34;-1.55;59.84
67862;DHT22;54665;51.462;6.698;2024-01-10T10:30:34;-1.52;60.15
67862;DHT22;54665;51.462;6.698;2024-01-10T10:32:35;-1.53;59.52
67862;DHT22;54665;51.462;6.698;2024-01-10T10:34:35;-1.38;59.90
67862;DHT22;54665;51.462;6.698;2024-01-10T10:36:36;-1.27;60.48
67862;DHT22;54665;51.462;6.698;2024-01-10T10:38:36;-1.02;59.09
67862;DHT22;54665;51.462;6.698;2024-01-10T10:40:36;-1.02;58.25
67862;DHT22;54665;51.462;6.698;2024-01-10T10:42:40;-1.07;58.39
67862;DHT22;54665;51.462;6.698;2024-01-10T10:44:44;-0.89;57.87
67862;DHT22;54665;51.462;6.698;2024-01-10T10:46:45;-1.09;58.33
67862;DHT22;54665;51.462;6.698;2024-01-10T10:48:46;-0.94;57.37
67862;DHT22;54665;51.462;6.698;2024-01-10T10:51:04;-0.94;57.51
67862;DHT22;54665;51.462;6.698;2024-01-10T10:53:05;-0.88;57.60
67862;DHT22;54665;51.462;6.698;2024-01-10T10:55:07;-0.85;57.82
67862;DHT22;54665;51.462;6.698;2024-01-10T10:57:08;-0.83;57.81
67862;DHT22;54665;51.462;6.698;2024-01-10T10:59:09;-0.83;57.49
67862;DHT22;54665;51.462;6.698;2024-01-10T11:01:13;-0.78;57.65
67862;DHT22;54665;51.462;6.698;2024-01-10T11:03:14;-0.87;57.72
67862;DHT22;54665;51.462;6.698;2024-01-10T11:05:16;-0.89;57.62
67862;DHT22;54665;51.462;6.698;2024-01-10T11:07:16;-0.53;57.14
67862;DHT22;54665;51.462;6.698;2024-01-10T11:09:18;0.08;55.79
67862;DHT22;54665;51.462;6.698;2024-01-10T11:20:33;0.29;54.47
67862;DHT22;54665;51.462;6.698;2024-01-10T11:23:02;0.25;54.33
67862;DHT22;54665;51.462;6.698;2024-01-10T11:25:08;0.25;54.30
67862;DHT22;54665;51.462;6.698;2024-01-10T11:27:13;0.48;54.11
67862;DHT22;54665;51.462;6.698;2024-01-10T11:29:15;0.56;53.47
67862;DHT22;54665;51.462;6.698;2024-01-10T11:31:16;0.59;53.66
67862;DHT22;54665;51.462;6.698;2024-01-10T11:33:34;1.01;53.11
67862;DHT22;54665;51.462;6.698;2024-01-10T11:35:35;1.07;52.62
67862;DHT22;54665;51.462;6.698;2024-01-10T11:37:41;1.30;52.17
67862;DHT22;54665;51.462;6.698;2024-01-10T11:39:42;1.07;52.38
67862;DHT22;54665;51.462;6.698;2024-01-10T11:41:42;1.37;51.16
67862;DHT22;54665;51.462;6.698;2024-01-10T11:43:42;0.96;52.05
67862;DHT22;54665;51.462;6.698;2024-01-10T11:45:55;1.27;52.45
67862;DHT22;54665;51.462;6.698;2024-01-10T11:47:56;1.32;52.06
67862;DHT22;54665;51.462;6.698;2024-01-10T11:49:58;1.51;52.28
67862;DHT22;54665;51.462;6.698;2024-01-10T11:51:58;1.55;51.75
67862;DHT22;54665;51.462;6.698;2024-01-10T11:53:59;1.79;50.97
67862;DHT22;54665;51.462;6.698;2024-01-10T11:56:09;1.59;51.00
67862;DHT22;54665;51.462;6.698;2024-01-10T11:58:10;1.47;51.46
67862;DHT22;54665;51.462;6.698;2024-01-10T12:00:14;1.87;50.65
67862;DHT22;54665;51.462;6.698;2024-01-10T12:02:14;1.34;50.93
67862;DHT22;54665;51.462;6.698;2024-01-10T12:04:16;1.75;50.45
67862;DHT22;54665;51.462;6.698;2024-01-10T12:06:16;1.73;49.91
67862;DHT22;54665;51.462;6.698;2024-01-10T12:08:17;2.14;50.11
67862;DHT22;54665;51.462;6.698;2024-01-10T12:10:20;1.98;49.21
67862;DHT22;54665;51.462;6.698;2024-01-10T12:12:20;1.93;50.41
67862;DHT22;54665;51.462;6.698;2024-01-10T12:14:20;1.73;50.13
67862;DHT22;54665;51.462;6.698;2024-01-10T12:16:22;2.38;49.51
67862;DHT22;54665;51.462;6.698;2024-01-10T12:18:23;2.36;48.89
67862;DHT22;54665;51.462;6.698;2024-01-10T12:20:23;2.64;48.61
67862;DHT22;54665;51.462;6.698;2024-01-10T12:22:24;2.54;47.71
67862;DHT22;54665;51.462;6.698;2024-01-10T12:24:27;2.26;47.86
67862;DHT22;54665;51.462;6.698;2024-01-10T12:26:27;2.21;47.97
67862;DHT22;54665;51.462;6.698;2024-01-10T12:28:28;2.19;48.46
67862;DHT22;54665;51.462;6.698;2024-01-10T12:30:28;2.52;49.19
67862;DHT22;54665;51.462;6.698;2024-01-10T12:32:29;2.88;48.88
67862;DHT22;54665;51.462;6.698;2024-01-10T12:34:29;3.12;48.48
67862;DHT22;54665;51.462;6.698;2024-01-10T12:36:29;2.60;49.14
67862;DHT22;54665;51.462;6.698;2024-01-10T12:38:30;2.95;48.42
67862;DHT22;54665;51.462;6.698;2024-01-10T12:40:32;3.06;48.12
67862;DHT22;54665;51.462;6.698;2024-01-10T12:42:32;3.23;48.34
67862;DHT22;54665;51.462;6.698;2024-01-10T12:44:32;2.98;47.94
67862;DHT22;54665;51.462;6.698;2024-01-10T12:46:33;2.93;48.59
67862;DHT22;54665;51.462;6.698;2024-01-10T12:48:34;2.60;48.76
67862;DHT22;54665;51.462;6.698;2024-01-10T12:50:34;2.41;48.96
67862;DHT22;54665;51.462;6.698;2024-01-10T12:52:35;2.70;49.19
67862;DHT22;54665;51.462;6.698;2024-01-10T12:54:35;1.60;50.38